sensor_id;sensor_type;location;lat;lon;timestamp;pressure;altitude;pressure_sealevel;temperature;humidity
29163;BME280;20331;53.144;8.208;2023-10-31T00:04:31;99379.59;;;13.44;100.00
29163;BME280;20331;53.144;8.208;2023-10-31T00:09:53;99370.25;;;13.42;100.00
29163;BME280;20331;53.144;8.208;2023-10-31T00:15:15;99360.03;;;13.39;100.00
29163;BME280;20331;53.144;8.208;2023-10-31T00:20:37;99365.53;;;13.34;100.00
29163;BME280;20331;53.144;8.208;2023-10-31T00:25:59;99377.50;;;13.37;100.00
29163;BME280;20331;53.144;8.208;2023-10-31T00:31:21;99376.56;;;13.38;100.00
29163;BME280;20331;53.144;8.208;2023-10-31T00:36:43;99370.63;;;13.36;100.00
29163;BME280;20331;53.144;8.208;2023-10-31T00:42:05;99379.91;;;13.40;100.00
29163;BME280;20331;53.144;8.208;2023-10-31T00:47:27;99363.34;;;13.41;100.00
29163;BME280;20331;53.144;8.208;2023-10-31T00:52:49;99358.16;;;13.41;100.00
29163;BME280;20331;53.144;8.208;2023-10-31T00:58:11;99361.91;;;13.37;100.00
29163;BME280;20331;53.144;8.208;2023-10-31T01:03:33;99365.03;;;13.42;100.00
29163;BME280;20331;53.144;8.208;2023-10-31T01:08:55;99347.78;;;13.41;100.00
29163;BME280;20331;53.144;8.208;2023-10-31T01:14:17;99344.44;;;13.39;100.00
29163;BME280;20331;53.144;8.208;2023-10-31T01:19:39;99346.75;;;13.43;100.00
29163;BME280;20331;53.144;8.208;2023-10-31T01:25:01;99338.75;;;13.46;100.00
29163;BME280;20331;53.144;8.208;2023-10-31T01:30:23;99334.38;;;13.47;100.00
29163;BME280;20331;53.144;8.208;2023-10-31T01:35:45;99324.72;;;13.49;100.00
29163;BME280;20331;53.144;8.208;2023-10-31T01:41:07;99317.88;;;13.48;100.00
29163;BME280;20331;53.144;8.208;2023-10-31T01:46:29;99320.56;;;13.46;100.00
29163;BME280;20331;53.144;8.208;2023-10-31T01:51:51;99311.22;;;13.44;100.00
29163;BME280;20331;53.144;8.208;2023-10-31T01:57:13;99309.13;;;13.49;100.00
29163;BME280;20331;53.144;8.208;2023-10-31T02:02:37;99301.13;;;13.52;100.00
29163;BME280;20331;53.144;8.208;2023-10-31T02:08:02;99291.34;;;13.55;100.00
29163;BME280;20331;53.144;8.208;2023-10-31T02:13:24;99281.06;;;13.54;100.00
29163;BME280;20331;53.144;8.208;2023-10-31T02:18:46;99272.34;;;13.55;100.00
29163;BME280;20331;53.144;8.208;2023-10-31T02:24:08;99272.75;;;13.49;100.00
29163;BME280;20331;53.144;8.208;2023-10-31T02:29:30;99269.19;;;13.50;100.00
29163;BME280;20331;53.144;8.208;2023-10-31T02:34:52;99265.78;;;13.49;100.00
29163;BME280;20331;53.144;8.208;2023-10-31T02:40:14;99265.69;;;13.51;100.00
29163;BME280;20331;53.144;8.208;2023-10-31T02:45:36;99263.81;;;13.53;100.00
29163;BME280;20331;53.144;8.208;2023-10-31T02:50:58;99253.44;;;13.53;100.00
29163;BME280;20331;53.144;8.208;2023-10-31T02:56:20;99255.28;;;13.51;100.00
29163;BME280;20331;53.144;8.208;2023-10-31T03:01:42;99241.56;;;13.49;100.00
29163;BME280;20331;53.144;8.208;2023-10-31T03:07:04;99234.50;;;13.51;100.00
29163;BME280;20331;53.144;8.208;2023-10-31T03:12:26;99235.97;;;13.55;100.00
29163;BME280;20331;53.144;8.208;2023-10-31T03:17:48;99230.75;;;13.55;100.00
29163;BME280;20331;53.144;8.208;2023-10-31T03:23:10;99218.50;;;13.57;100.00
29163;BME280;20331;53.144;8.208;2023-10-31T03:28:32;99213.31;;;13.57;100.00
29163;BME280;20331;53.144;8.208;2023-10-31T03:33:54;99209.88;;;13.56;100.00
29163;BME280;20331;53.144;8.208;2023-10-31T03:39:16;99208.09;;;13.57;100.00
29163;BME280;20331;53.144;8.208;2023-10-31T03:44:38;99203.09;;;13.54;100.00
29163;BME280;20331;53.144;8.208;2023-10-31T03:49:59;99194.28;;;13.56;100.00
29163;BME280;20331;53.144;8.208;2023-10-31T03:55:21;99204.78;;;13.55;100.00
29163;BME280;20331;53.144;8.208;2023-10-31T04:00:43;99198.13;;;13.51;100.00
29163;BME280;20331;53.144;8.208;2023-10-31T04:06:05;99200.72;;;13.51;100.00
29163;BME280;20331;53.144;8.208;2023-10-31T04:11:27;99201.44;;;13.53;100.00
29163;BME280;20331;53.144;8.208;2023-10-31T04:16:49;99197.91;;;13.54;100.00
29163;BME280;20331;53.144;8.208;2023-10-31T04:22:11;99192.69;;;13.54;100.00
29163;BME280;20331;53.144;8.208;2023-10-31T04:27:33;99193.53;;;13.54;100.00
29163;BME280;20331;53.144;8.208;2023-10-31T04:32:55;99184.41;;;13.49;100.00
29163;BME280;20331;53.144;8.208;2023-10-31T04:38:17;99180.34;;;13.45;100.00
29163;BME280;20331;53.144;8.208;2023-10-31T04:43:39;99195.00;;;13.46;100.00
29163;BME280;20331;53.144;8.208;2023-10-31T04:49:03;99185.75;;;13.42;100.00
29163;BME280;20331;53.144;8.208;2023-10-31T04:54:25;99192.19;;;13.36;100.00
29163;BME280;20331;53.144;8.208;2023-10-31T04:59:47;99226.25;;;13.32;100.00
29163;BME280;20331;53.144;8.208;2023-10-31T05:05:09;99258.34;;;12.91;100.00
29163;BME280;20331;53.144;8.208;2023-10-31T05:10:31;99276.13;;;12.44;100.00
29163;BME280;20331;53.144;8.208;2023-10-31T05:15:53;99292.56;;;12.17;100.00
29163;BME280;20331;53.144;8.208;2023-10-31T05:21:19;99311.19;;;11.95;100.00
29163;BME280;20331;53.144;8.208;2023-10-31T05:26:42;99323.00;;;11.85;100.00
29163;BME280;20331;53.144;8.208;2023-10-31T05:32:04;99328.09;;;11.72;100.00
29163;BME280;20331;53.144;8.208;2023-10-31T05:37:27;99350.34;;;11.61;100.00
29163;BME280;20331;53.144;8.208;2023-10-31T05:42:49;99362.06;;;11.52;100.00
29163;BME280;20331;53.144;8.208;2023-10-31T05:48:10;99386.47;;;11.48;100.00
29163;BME280;20331;53.144;8.208;2023-10-31T05:53:35;99380.63;;;11.45;100.00
29163;BME280;20331;53.144;8.208;2023-10-31T05:58:57;99404.88;;;11.44;100.00
29163;BME280;20331;53.144;8.208;2023-10-31T06:04:18;99415.97;;;11.46;100.00
29163;BME280;20331;53.144;8.208;2023-10-31T06:09:40;99433.53;;;11.41;100.00
29163;BME280;20331;53.144;8.208;2023-10-31T06:15:02;99453.84;;;11.33;100.00
29163;BME280;20331;53.144;8.208;2023-10-31T06:20:26;99466.03;;;11.31;100.00
29163;BME280;20331;53.144;8.208;2023-10-31T06:25:48;99473.22;;;11.26;100.00
29163;BME280;20331;53.144;8.208;2023-10-31T06:31:09;99485.41;;;11.24;100.00
29163;BME280;20331;53.144;8.208;2023-10-31T06:36:31;99510.63;;;11.20;100.00
29163;BME280;20331;53.144;8.208;2023-10-31T06:41:57;99525.34;;;11.20;100.00
29163;BME280;20331;53.144;8.208;2023-10-31T06:47:18;99533.28;;;11.17;100.00
29163;BME280;20331;53.144;8.208;2023-10-31T06:52:40;99544.69;;;11.12;100.00
29163;BME280;20331;53.144;8.208;2023-10-31T06:58:03;99567.84;;;11.15;100.00
29163;BME280;20331;53.144;8.208;2023-10-31T07:03:25;99566.25;;;11.13;100.00
29163;BME280;20331;53.144;8.208;2023-10-31T07:08:47;99582.88;;;11.09;100.00
29163;BME280;20331;53.144;8.208;2023-10-31T07:14:09;99591.63;;;11.06;100.00
29163;BME280;20331;53.144;8.208;2023-10-31T07:19:31;99602.66;;;11.10;100.00
29163;BME280;20331;53.144;8.208;2023-10-31T07:24:53;99606.84;;;11.12;100.00
29163;BME280;20331;53.144;8.208;2023-10-31T07:30:15;99611.44;;;11.07;100.00
29163;BME280;20331;53.144;8.208;2023-10-31T07:35:37;99614.09;;;11.06;100.00
29163;BME280;20331;53.144;8.208;2023-10-31T07:40:59;99622.59;;;11.08;100.00
29163;BME280;20331;53.144;8.208;2023-10-31T07:46:21;99632.91;;;11.09;100.00
29163;BME280;20331;53.144;8.208;2023-10-31T07:51:43;99642.31;;;11.10;100.00
29163;BME280;20331;53.144;8.208;2023-10-31T07:57:05;99639.91;;;11.07;100.00
29163;BME280;20331;53.144;8.208;2023-10-31T08:02:27;99641.38;;;11.11;100.00
29163;BME280;20331;53.144;8.208;2023-10-31T08:07:49;99659.38;;;11.14;100.00
29163;BME280;20331;53.144;8.208;2023-10-31T08:13:11;99655.84;;;11.15;100.00
29163;BME280;20331;53.144;8.208;2023-10-31T08:18:33;99652.19;;;11.20;100.00
29163;BME280;20331;53.144;8.208;2023-10-31T08:23:55;99664.09;;;11.24;100.00
29163;BME280;20331;53.144;8.208;2023-10-31T08:29:17;99662.34;;;11.24;100.00
29163;BME280;20331;53.144;8.208;2023-10-31T08:34:39;99671.53;;;11.30;100.00
29163;BME280;20331;53.144;8.208;2023-10-31T08:40:01;99675.63;;;11.34;100.00
29163;BME280;20331;53.144;8.208;2023-10-31T08:45:25;99686.75;;;11.36;100.00
29163;BME280;20331;53.144;8.208;2023-10-31T08:50:47;99688.56;;;11.34;100.00
29163;BME280;20331;53.144;8.208;2023-10-31T08:56:09;99707.00;;;11.45;100.00
29163;BME280;20331;53.144;8.208;2023-10-31T09:01:31;99711.28;;;11.46;100.00
29163;BME280;20331;53.144;8.208;2023-10-31T09:06:55;99717.03;;;11.51;100.00
29163;BME280;20331;53.144;8.208;2023-10-31T09:12:17;99723.91;;;11.52;100.00
29163;BME280;20331;53.144;8.208;2023-10-31T09:17:39;99740.13;;;11.55;100.00
29163;BME280;20331;53.144;8.208;2023-10-31T09:23:01;99747.06;;;11.55;100.00
29163;BME280;20331;53.144;8.208;2023-10-31T09:28:23;99750.34;;;11.58;100.00
29163;BME280;20331;53.144;8.208;2023-10-31T09:33:45;99769.91;;;11.64;100.00
29163;BME280;20331;53.144;8.208;2023-10-31T09:39:08;99773.88;;;11.71;100.00
29163;BME280;20331;53.144;8.208;2023-10-31T09:44:29;99777.16;;;11.74;100.00
29163;BME280;20331;53.144;8.208;2023-10-31T09:49:52;99779.19;;;11.85;100.00
29163;BME280;20331;53.144;8.208;2023-10-31T09:55:15;99785.13;;;11.87;100.00
29163;BME280;20331;53.144;8.208;2023-10-31T10:00:37;99787.59;;;11.90;100.00
29163;BME280;20331;53.144;8.208;2023-10-31T10:06:05;99801.44;;;11.89;100.00
29163;BME280;20331;53.144;8.208;2023-10-31T10:11:27;99793.75;;;11.87;100.00
29163;BME280;20331;53.144;8.208;2023-10-31T10:16:49;99799.09;;;11.84;100.00
29163;BME280;20331;53.144;8.208;2023-10-31T10:22:11;99786.38;;;11.80;100.00
29163;BME280;20331;53.144;8.208;2023-10-31T10:27:34;99795.59;;;11.85;100.00
29163;BME280;20331;53.144;8.208;2023-10-31T10:32:57;99806.50;;;11.92;100.00
29163;BME280;20331;53.144;8.208;2023-10-31T10:38:19;99804.50;;;11.97;100.00
29163;BME280;20331;53.144;8.208;2023-10-31T10:43:43;99810.84;;;12.07;100.00
29163;BME280;20331;53.144;8.208;2023-10-31T10:49:06;99814.38;;;12.06;100.00
29163;BME280;20331;53.144;8.208;2023-10-31T10:54:35;99818.59;;;12.24;100.00
29163;BME280;20331;53.144;8.208;2023-10-31T11:00:03;99822.38;;;12.34;100.00
29163;BME280;20331;53.144;8.208;2023-10-31T11:05:26;99832.94;;;12.47;100.00
29163;BME280;20331;53.144;8.208;2023-10-31T11:10:50;99836.78;;;12.55;100.00
29163;BME280;20331;53.144;8.208;2023-10-31T11:16:17;99832.09;;;12.62;100.00
29163;BME280;20331;53.144;8.208;2023-10-31T11:22:01;99839.41;;;12.71;100.00
29163;BME280;20331;53.144;8.208;2023-10-31T11:27:24;99845.19;;;12.76;100.00
29163;BME280;20331;53.144;8.208;2023-10-31T11:32:52;99846.84;;;12.77;100.00
29163;BME280;20331;53.144;8.208;2023-10-31T11:38:14;99872.88;;;12.75;100.00
29163;BME280;20331;53.144;8.208;2023-10-31T11:49:01;99922.63;;;12.35;100.00
29163;BME280;20331;53.144;8.208;2023-10-31T11:54:23;99941.44;;;12.23;100.00
29163;BME280;20331;53.144;8.208;2023-10-31T11:59:45;99968.75;;;12.13;100.00
29163;BME280;20331;53.144;8.208;2023-10-31T12:05:13;99976.91;;;12.05;100.00
29163;BME280;20331;53.144;8.208;2023-10-31T12:10:36;99988.88;;;11.91;100.00
29163;BME280;20331;53.144;8.208;2023-10-31T12:15:58;100003.66;;;11.89;100.00
29163;BME280;20331;53.144;8.208;2023-10-31T12:27:00;100039.19;;;11.87;100.00
29163;BME280;20331;53.144;8.208;2023-10-31T12:32:22;100074.69;;;11.85;100.00
29163;BME280;20331;53.144;8.208;2023-10-31T12:37:46;100082.13;;;11.74;100.00
29163;BME280;20331;53.144;8.208;2023-10-31T12:43:09;100089.38;;;11.67;100.00
29163;BME280;20331;53.144;8.208;2023-10-31T12:48:31;100096.28;;;11.67;100.00
29163;BME280;20331;53.144;8.208;2023-10-31T12:53:54;100104.16;;;11.65;100.00
29163;BME280;20331;53.144;8.208;2023-10-31T12:59:18;100112.69;;;11.67;100.00
29163;BME280;20331;53.144;8.208;2023-10-31T13:04:40;100125.72;;;11.66;100.00
29163;BME280;20331;53.144;8.208;2023-10-31T13:10:03;100138.91;;;11.60;100.00
29163;BME280;20331;53.144;8.208;2023-10-31T13:15:25;100152.03;;;11.57;100.00
29163;BME280;20331;53.144;8.208;2023-10-31T13:20:47;100167.84;;;11.51;100.00
29163;BME280;20331;53.144;8.208;2023-10-31T13:26:09;100181.97;;;11.44;100.00
29163;BME280;20331;53.144;8.208;2023-10-31T13:31:31;100182.75;;;11.46;100.00
29163;BME280;20331;53.144;8.208;2023-10-31T13:36:54;100188.97;;;11.42;98.62
29163;BME280;20331;53.144;8.208;2023-10-31T13:42:17;100198.63;;;11.38;99.92
29163;BME280;20331;53.144;8.208;2023-10-31T13:47:38;100192.88;;;11.32;100.00
29163;BME280;20331;53.144;8.208;2023-10-31T13:53:01;100200.00;;;11.27;99.56
29163;BME280;20331;53.144;8.208;2023-10-31T13:58:24;100200.00;;;11.27;98.50
29163;BME280;20331;53.144;8.208;2023-10-31T14:03:46;100204.97;;;11.31;100.00
29163;BME280;20331;53.144;8.208;2023-10-31T14:09:10;100220.31;;;11.36;99.53
29163;BME280;20331;53.144;8.208;2023-10-31T14:14:33;100215.13;;;11.36;98.58
29163;BME280;20331;53.144;8.208;2023-10-31T14:19:55;100226.41;;;11.35;100.00
29163;BME280;20331;53.144;8.208;2023-10-31T14:25:17;100242.09;;;11.32;98.03
29163;BME280;20331;53.144;8.208;2023-10-31T14:30:39;100251.69;;;11.30;99.50
29163;BME280;20331;53.144;8.208;2023-10-31T14:36:02;100258.53;;;11.31;97.56
29163;BME280;20331;53.144;8.208;2023-10-31T14:41:24;100258.38;;;11.34;94.76
29163;BME280;20331;53.144;8.208;2023-10-31T14:46:46;100254.13;;;11.33;97.43
29163;BME280;20331;53.144;8.208;2023-10-31T14:52:08;100257.88;;;11.26;98.38
29163;BME280;20331;53.144;8.208;2023-10-31T14:57:30;100261.31;;;11.26;97.14
29163;BME280;20331;53.144;8.208;2023-10-31T15:02:52;100256.97;;;11.27;97.62
29163;BME280;20331;53.144;8.208;2023-10-31T15:08:14;100258.66;;;11.07;97.00
29163;BME280;20331;53.144;8.208;2023-10-31T15:13:36;100271.91;;;11.00;99.42
29163;BME280;20331;53.144;8.208;2023-10-31T15:18:58;100275.44;;;10.97;97.57
29163;BME280;20331;53.144;8.208;2023-10-31T15:24:20;100296.16;;;10.97;96.98
29163;BME280;20331;53.144;8.208;2023-10-31T15:29:43;100303.41;;;10.89;97.73
29163;BME280;20331;53.144;8.208;2023-10-31T15:35:05;100315.38;;;10.92;98.76
29163;BME280;20331;53.144;8.208;2023-10-31T15:40:28;100329.16;;;10.92;100.00
29163;BME280;20331;53.144;8.208;2023-10-31T15:45:50;100333.78;;;10.84;100.00
29163;BME280;20331;53.144;8.208;2023-10-31T15:51:12;100339.66;;;10.89;100.00
29163;BME280;20331;53.144;8.208;2023-10-31T15:56:34;100342.34;;;10.86;100.00
29163;BME280;20331;53.144;8.208;2023-10-31T16:01:56;100341.69;;;10.81;100.00
29163;BME280;20331;53.144;8.208;2023-10-31T16:07:19;100356.13;;;10.87;100.00
29163;BME280;20331;53.144;8.208;2023-10-31T16:12:42;100363.81;;;10.88;100.00
29163;BME280;20331;53.144;8.208;2023-10-31T16:18:04;100373.22;;;10.91;100.00
29163;BME280;20331;53.144;8.208;2023-10-31T16:23:28;100382.72;;;10.90;98.53
29163;BME280;20331;53.144;8.208;2023-10-31T16:28:50;100396.53;;;10.91;100.00
29163;BME280;20331;53.144;8.208;2023-10-31T16:34:12;100400.06;;;10.88;100.00
29163;BME280;20331;53.144;8.208;2023-10-31T16:39:34;100398.50;;;10.84;100.00
29163;BME280;20331;53.144;8.208;2023-10-31T16:44:56;100413.78;;;10.90;100.00
29163;BME280;20331;53.144;8.208;2023-10-31T16:50:18;100420.66;;;10.91;100.00
29163;BME280;20331;53.144;8.208;2023-10-31T16:55:40;100431.91;;;10.90;100.00
29163;BME280;20331;53.144;8.208;2023-10-31T17:01:03;100441.34;;;10.91;99.77
29163;BME280;20331;53.144;8.208;2023-10-31T17:06:25;100439.53;;;10.95;100.00
29163;BME280;20331;53.144;8.208;2023-10-31T17:11:49;100443.91;;;10.93;100.00
29163;BME280;20331;53.144;8.208;2023-10-31T17:17:11;100446.44;;;10.94;100.00
29163;BME280;20331;53.144;8.208;2023-10-31T17:22:33;100456.13;;;10.89;99.63
29163;BME280;20331;53.144;8.208;2023-10-31T17:27:57;100474.97;;;10.93;99.84
29163;BME280;20331;53.144;8.208;2023-10-31T17:33:19;100482.78;;;10.91;100.00
29163;BME280;20331;53.144;8.208;2023-10-31T17:38:42;100473.19;;;10.95;97.87
29163;BME280;20331;53.144;8.208;2023-10-31T17:44:04;100492.13;;;10.95;100.00
29163;BME280;20331;53.144;8.208;2023-10-31T17:49:26;100501.69;;;10.93;100.00
29163;BME280;20331;53.144;8.208;2023-10-31T17:54:48;100506.13;;;10.90;97.95
29163;BME280;20331;53.144;8.208;2023-10-31T18:00:10;100515.66;;;10.89;100.00
29163;BME280;20331;53.144;8.208;2023-10-31T18:05:32;100502.03;;;10.84;100.00
29163;BME280;20331;53.144;8.208;2023-10-31T18:10:54;100500.47;;;10.80;100.00
29163;BME280;20331;53.144;8.208;2023-10-31T18:16:16;100508.50;;;10.73;100.00
29163;BME280;20331;53.144;8.208;2023-10-31T18:21:41;100509.66;;;10.64;100.00
29163;BME280;20331;53.144;8.208;2023-10-31T18:27:04;100520.25;;;10.58;100.00
29163;BME280;20331;53.144;8.208;2023-10-31T18:32:26;100520.34;;;10.55;100.00
29163;BME280;20331;53.144;8.208;2023-10-31T18:37:48;100526.34;;;10.56;100.00
29163;BME280;20331;53.144;8.208;2023-10-31T18:43:11;100525.56;;;10.54;100.00
29163;BME280;20331;53.144;8.208;2023-10-31T18:48:33;100518.53;;;10.57;100.00
29163;BME280;20331;53.144;8.208;2023-10-31T18:53:56;100521.19;;;10.56;100.00
29163;BME280;20331;53.144;8.208;2023-10-31T18:59:18;100531.53;;;10.56;100.00
29163;BME280;20331;53.144;8.208;2023-10-31T19:04:40;100516.13;;;10.53;100.00
29163;BME280;20331;53.144;8.208;2023-10-31T19:10:02;100527.28;;;10.55;100.00
29163;BME280;20331;53.144;8.208;2023-10-31T19:15:25;100526.41;;;10.54;100.00
29163;BME280;20331;53.144;8.208;2023-10-31T19:20:47;100522.97;;;10.54;100.00
29163;BME280;20331;53.144;8.208;2023-10-31T19:26:09;100529.06;;;10.53;100.00
29163;BME280;20331;53.144;8.208;2023-10-31T19:31:31;100539.44;;;10.51;100.00
29163;BME280;20331;53.144;8.208;2023-10-31T19:36:53;100545.47;;;10.52;100.00
29163;BME280;20331;53.144;8.208;2023-10-31T19:42:15;100551.50;;;10.52;100.00
29163;BME280;20331;53.144;8.208;2023-10-31T19:47:37;100541.13;;;10.52;100.00
29163;BME280;20331;53.144;8.208;2023-10-31T19:52:59;100552.34;;;10.53;100.00
29163;BME280;20331;53.144;8.208;2023-10-31T19:58:21;100553.97;;;10.55;100.00
29163;BME280;20331;53.144;8.208;2023-10-31T20:03:45;100557.47;;;10.54;100.00
29163;BME280;20331;53.144;8.208;2023-10-31T20:09:07;100560.84;;;10.56;100.00
29163;BME280;20331;53.144;8.208;2023-10-31T20:14:29;100555.72;;;10.55;100.00
29163;BME280;20331;53.144;8.208;2023-10-31T20:19:51;100568.59;;;10.56;100.00
29163;BME280;20331;53.144;8.208;2023-10-31T20:25:13;100559.06;;;10.57;100.00
29163;BME280;20331;53.144;8.208;2023-10-31T20:30:35;100551.38;;;10.55;100.00
29163;BME280;20331;53.144;8.208;2023-10-31T20:35:58;100565.97;;;10.58;100.00
29163;BME280;20331;53.144;8.208;2023-10-31T20:41:20;100563.44;;;10.56;100.00
29163;BME280;20331;53.144;8.208;2023-10-31T20:46:43;100558.34;;;10.53;100.00
29163;BME280;20331;53.144;8.208;2023-10-31T20:52:05;100552.34;;;10.53;100.00
29163;BME280;20331;53.144;8.208;2023-10-31T20:57:27;100550.69;;;10.50;100.00
29163;BME280;20331;53.144;8.208;2023-10-31T21:02:49;100546.44;;;10.49;100.00
29163;BME280;20331;53.144;8.208;2023-10-31T21:08:11;100543.72;;;10.52;100.00
29163;BME280;20331;53.144;8.208;2023-10-31T21:13:33;100553.16;;;10.53;100.00
29163;BME280;20331;53.144;8.208;2023-10-31T21:18:55;100550.69;;;10.50;100.00
29163;BME280;20331;53.144;8.208;2023-10-31T21:24:17;100548.09;;;10.50;100.00
29163;BME280;20331;53.144;8.208;2023-10-31T21:29:39;100547.31;;;10.48;100.00
29163;BME280;20331;53.144;8.208;2023-10-31T21:35:01;100534.38;;;10.48;100.00
29163;BME280;20331;53.144;8.208;2023-10-31T21:40:25;100533.59;;;10.46;100.00
29163;BME280;20331;53.144;8.208;2023-10-31T21:45:47;100535.38;;;10.44;100.00
29163;BME280;20331;53.144;8.208;2023-10-31T21:51:09;100536.28;;;10.43;100.00
29163;BME280;20331;53.144;8.208;2023-10-31T21:56:31;100538.06;;;10.41;100.00
29163;BME280;20331;53.144;8.208;2023-10-31T22:01:53;100537.16;;;10.42;100.00
29163;BME280;20331;53.144;8.208;2023-10-31T22:07:15;100540.72;;;10.40;100.00
29163;BME280;20331;53.144;8.208;2023-10-31T22:12:37;100538.06;;;10.41;100.00
29163;BME280;20331;53.144;8.208;2023-10-31T22:17:59;100540.66;;;10.41;100.00
29163;BME280;20331;53.144;8.208;2023-10-31T22:23:21;100544.25;;;10.37;100.00
29163;BME280;20331;53.144;8.208;2023-10-31T22:28:43;100547.63;;;10.39;100.00
29163;BME280;20331;53.144;8.208;2023-10-31T22:34:05;100542.41;;;10.41;100.00
29163;BME280;20331;53.144;8.208;2023-10-31T22:39:27;100550.09;;;10.42;100.00
29163;BME280;20331;53.144;8.208;2023-10-31T22:44:49;100544.19;;;10.39;100.00
29163;BME280;20331;53.144;8.208;2023-10-31T22:50:11;100539.00;;;10.39;100.00
29163;BME280;20331;53.144;8.208;2023-10-31T22:55:33;100544.09;;;10.42;100.00
29163;BME280;20331;53.144;8.208;2023-10-31T23:00:55;100544.84;;;10.45;100.00
29163;BME280;20331;53.144;8.208;2023-10-31T23:06:17;100549.16;;;10.45;100.00
29163;BME280;20331;53.144;8.208;2023-10-31T23:11:39;100539.59;;;10.47;100.00
29163;BME280;20331;53.144;8.208;2023-10-31T23:17:02;100539.56;;;10.48;100.00
29163;BME280;20331;53.144;8.208;2023-10-31T23:22:24;100532.69;;;10.47;100.00
29163;BME280;20331;53.144;8.208;2023-10-31T23:27:48;100520.66;;;10.46;100.00
29163;BME280;20331;53.144;8.208;2023-10-31T23:33:10;100532.78;;;10.44;100.00
29163;BME280;20331;53.144;8.208;2023-10-31T23:38:32;100522.38;;;10.46;100.00
29163;BME280;20331;53.144;8.208;2023-10-31T23:43:54;100517.22;;;10.46;100.00
29163;BME280;20331;53.144;8.208;2023-10-31T23:49:16;100499.97;;;10.46;100.00
29163;BME280;20331;53.144;8.208;2023-10-31T23:54:40;100512.81;;;10.49;100.00
